sensor_id;sensor_type;location;lat;lon;timestamp;P1;durP1;ratioP1;P2;durP2;ratioP2
70414;SDS011;57837;52.064;113.478;2023-07-13T00:02:48;8.47;;;4.70;;
70414;SDS011;57837;52.064;113.478;2023-07-13T00:06:00;9.70;;;4.97;;
70414;SDS011;57837;52.064;113.478;2023-07-13T00:09:05;8.98;;;4.90;;
70414;SDS011;57837;52.064;113.478;2023-07-13T00:12:22;5.47;;;4.72;;
70414;SDS011;57837;52.064;113.478;2023-07-13T00:15:32;6.78;;;4.70;;
70414;SDS011;57837;52.064;113.478;2023-07-13T00:18:36;7.07;;;4.70;;
70414;SDS011;57837;52.064;113.478;2023-07-13T00:21:41;6.20;;;5.05;;
70414;SDS011;57837;52.064;113.478;2023-07-13T00:24:45;7.10;;;4.75;;
70414;SDS011;57837;52.064;113.478;2023-07-13T00:27:49;7.03;;;4.97;;
70414;SDS011;57837;52.064;113.478;2023-07-13T00:30:54;6.70;;;4.93;;
70414;SDS011;57837;52.064;113.478;2023-07-13T00:33:58;9.67;;;5.20;;
70414;SDS011;57837;52.064;113.478;2023-07-13T00:37:03;8.95;;;5.60;;
70414;SDS011;57837;52.064;113.478;2023-07-13T00:40:10;6.30;;;4.85;;
70414;SDS011;57837;52.064;113.478;2023-07-13T00:43:17;9.77;;;4.90;;
70414;SDS011;57837;52.064;113.478;2023-07-13T00:46:30;7.80;;;5.57;;
70414;SDS011;57837;52.064;113.478;2023-07-13T00:49:37;8.37;;;4.73;;
70414;SDS011;57837;52.064;113.478;2023-07-13T00:52:45;6.90;;;4.68;;
70414;SDS011;57837;52.064;113.478;2023-07-13T00:55:50;6.35;;;4.30;;
70414;SDS011;57837;52.064;113.478;2023-07-13T00:58:57;8.00;;;5.00;;
70414;SDS011;57837;52.064;113.478;2023-07-13T01:02:03;9.75;;;5.30;;
70414;SDS011;57837;52.064;113.478;2023-07-13T01:05:11;6.97;;;5.03;;
70414;SDS011;57837;52.064;113.478;2023-07-13T01:08:20;10.25;;;4.70;;
70414;SDS011;57837;52.064;113.478;2023-07-13T01:11:24;6.88;;;4.97;;
70414;SDS011;57837;52.064;113.478;2023-07-13T01:14:30;7.60;;;5.00;;
70414;SDS011;57837;52.064;113.478;2023-07-13T01:17:34;7.55;;;5.03;;
70414;SDS011;57837;52.064;113.478;2023-07-13T01:20:41;6.30;;;4.97;;
70414;SDS011;57837;52.064;113.478;2023-07-13T01:23:51;6.32;;;4.85;;
70414;SDS011;57837;52.064;113.478;2023-07-13T01:26:55;8.23;;;4.30;;
70414;SDS011;57837;52.064;113.478;2023-07-13T01:29:59;15.60;;;4.88;;
70414;SDS011;57837;52.064;113.478;2023-07-13T01:33:09;9.18;;;4.70;;
70414;SDS011;57837;52.064;113.478;2023-07-13T01:36:12;20.27;;;6.00;;
70414;SDS011;57837;52.064;113.478;2023-07-13T01:39:16;6.68;;;4.72;;
70414;SDS011;57837;52.064;113.478;2023-07-13T01:42:19;9.13;;;4.55;;
70414;SDS011;57837;52.064;113.478;2023-07-13T01:45:23;5.10;;;4.60;;
70414;SDS011;57837;52.064;113.478;2023-07-13T01:48:27;10.90;;;4.82;;
70414;SDS011;57837;52.064;113.478;2023-07-13T01:51:31;13.97;;;5.87;;
70414;SDS011;57837;52.064;113.478;2023-07-13T01:54:34;16.17;;;5.30;;
70414;SDS011;57837;52.064;113.478;2023-07-13T01:57:38;6.45;;;4.68;;
70414;SDS011;57837;52.064;113.478;2023-07-13T02:00:42;10.25;;;6.30;;
70414;SDS011;57837;52.064;113.478;2023-07-13T02:03:45;11.95;;;6.40;;
70414;SDS011;57837;52.064;113.478;2023-07-13T02:06:49;10.40;;;5.83;;
70414;SDS011;57837;52.064;113.478;2023-07-13T02:09:53;5.85;;;4.93;;
70414;SDS011;57837;52.064;113.478;2023-07-13T02:12:56;6.53;;;5.05;;
70414;SDS011;57837;52.064;113.478;2023-07-13T02:16:00;9.60;;;6.10;;
70414;SDS011;57837;52.064;113.478;2023-07-13T02:19:04;11.10;;;6.03;;
70414;SDS011;57837;52.064;113.478;2023-07-13T02:22:09;5.40;;;4.83;;
70414;SDS011;57837;52.064;113.478;2023-07-13T02:25:12;6.60;;;4.82;;
70414;SDS011;57837;52.064;113.478;2023-07-13T02:28:17;5.10;;;4.55;;
70414;SDS011;57837;52.064;113.478;2023-07-13T02:31:21;7.97;;;5.05;;
70414;SDS011;57837;52.064;113.478;2023-07-13T02:34:28;7.10;;;4.93;;
70414;SDS011;57837;52.064;113.478;2023-07-13T02:37:34;5.70;;;5.10;;
70414;SDS011;57837;52.064;113.478;2023-07-13T02:40:37;5.43;;;4.38;;
70414;SDS011;57837;52.064;113.478;2023-07-13T02:43:40;6.65;;;4.80;;
70414;SDS011;57837;52.064;113.478;2023-07-13T02:46:44;11.75;;;4.93;;
70414;SDS011;57837;52.064;113.478;2023-07-13T02:49:47;8.10;;;4.88;;
70414;SDS011;57837;52.064;113.478;2023-07-13T02:52:51;7.50;;;4.80;;
70414;SDS011;57837;52.064;113.478;2023-07-13T02:55:54;9.98;;;5.07;;
70414;SDS011;57837;52.064;113.478;2023-07-13T02:58:58;8.15;;;4.88;;
70414;SDS011;57837;52.064;113.478;2023-07-13T03:02:02;9.25;;;4.72;;
70414;SDS011;57837;52.064;113.478;2023-07-13T03:05:06;6.22;;;5.00;;
70414;SDS011;57837;52.064;113.478;2023-07-13T03:08:11;6.30;;;4.93;;
70414;SDS011;57837;52.064;113.478;2023-07-13T03:11:19;7.30;;;4.60;;
70414;SDS011;57837;52.064;113.478;2023-07-13T03:14:42;9.50;;;4.45;;
70414;SDS011;57837;52.064;113.478;2023-07-13T03:17:46;12.63;;;4.60;;
70414;SDS011;57837;52.064;113.478;2023-07-13T03:20:51;7.88;;;4.43;;
70414;SDS011;57837;52.064;113.478;2023-07-13T03:23:56;9.83;;;4.50;;
70414;SDS011;57837;52.064;113.478;2023-07-13T03:27:01;6.95;;;4.50;;
70414;SDS011;57837;52.064;113.478;2023-07-13T03:30:10;5.35;;;4.85;;
70414;SDS011;57837;52.064;113.478;2023-07-13T03:33:16;8.48;;;4.80;;
70414;SDS011;57837;52.064;113.478;2023-07-13T03:36:21;11.07;;;4.88;;
70414;SDS011;57837;52.064;113.478;2023-07-13T03:39:29;6.63;;;4.57;;
70414;SDS011;57837;52.064;113.478;2023-07-13T03:42:33;4.90;;;4.13;;
70414;SDS011;57837;52.064;113.478;2023-07-13T03:45:37;9.82;;;4.50;;
70414;SDS011;57837;52.064;113.478;2023-07-13T03:48:42;7.85;;;4.43;;
70414;SDS011;57837;52.064;113.478;2023-07-13T03:51:47;7.90;;;4.32;;
70414;SDS011;57837;52.064;113.478;2023-07-13T03:54:55;4.70;;;4.10;;
70414;SDS011;57837;52.064;113.478;2023-07-13T03:58:00;5.30;;;4.68;;
70414;SDS011;57837;52.064;113.478;2023-07-13T04:01:26;8.77;;;7.03;;
70414;SDS011;57837;52.064;113.478;2023-07-13T04:04:30;6.40;;;4.20;;
70414;SDS011;57837;52.064;113.478;2023-07-13T04:07:34;9.38;;;4.30;;
70414;SDS011;57837;52.064;113.478;2023-07-13T04:10:37;5.57;;;3.83;;
70414;SDS011;57837;52.064;113.478;2023-07-13T04:13:41;11.80;;;4.20;;
70414;SDS011;57837;52.064;113.478;2023-07-13T04:16:45;7.80;;;4.18;;
70414;SDS011;57837;52.064;113.478;2023-07-13T04:19:49;5.05;;;3.80;;
70414;SDS011;57837;52.064;113.478;2023-07-13T04:22:52;11.25;;;4.35;;
70414;SDS011;57837;52.064;113.478;2023-07-13T04:25:56;14.17;;;3.93;;
70414;SDS011;57837;52.064;113.478;2023-07-13T04:29:00;6.65;;;4.10;;
70414;SDS011;57837;52.064;113.478;2023-07-13T04:32:03;6.47;;;3.30;;
70414;SDS011;57837;52.064;113.478;2023-07-13T04:35:08;7.72;;;3.58;;
70414;SDS011;57837;52.064;113.478;2023-07-13T04:38:11;10.10;;;4.75;;
70414;SDS011;57837;52.064;113.478;2023-07-13T04:41:16;7.03;;;3.90;;
70414;SDS011;57837;52.064;113.478;2023-07-13T04:44:20;5.82;;;4.35;;
70414;SDS011;57837;52.064;113.478;2023-07-13T04:47:24;10.38;;;4.50;;
70414;SDS011;57837;52.064;113.478;2023-07-13T04:50:28;9.18;;;5.07;;
70414;SDS011;57837;52.064;113.478;2023-07-13T04:53:32;8.77;;;4.53;;
70414;SDS011;57837;52.064;113.478;2023-07-13T04:56:37;10.47;;;4.77;;
70414;SDS011;57837;52.064;113.478;2023-07-13T04:59:41;13.98;;;5.47;;
70414;SDS011;57837;52.064;113.478;2023-07-13T05:02:45;12.98;;;5.35;;
70414;SDS011;57837;52.064;113.478;2023-07-13T05:05:55;7.60;;;5.13;;
70414;SDS011;57837;52.064;113.478;2023-07-13T05:09:00;7.65;;;4.55;;
70414;SDS011;57837;52.064;113.478;2023-07-13T05:12:05;7.63;;;4.43;;
70414;SDS011;57837;52.064;113.478;2023-07-13T05:15:10;7.35;;;4.70;;
70414;SDS011;57837;52.064;113.478;2023-07-13T05:18:14;6.78;;;4.90;;
70414;SDS011;57837;52.064;113.478;2023-07-13T05:21:18;9.45;;;4.75;;
70414;SDS011;57837;52.064;113.478;2023-07-13T05:24:22;14.68;;;4.60;;
70414;SDS011;57837;52.064;113.478;2023-07-13T05:27:26;10.23;;;4.80;;
70414;SDS011;57837;52.064;113.478;2023-07-13T05:30:31;5.22;;;4.15;;
70414;SDS011;57837;52.064;113.478;2023-07-13T05:33:36;6.60;;;4.50;;
70414;SDS011;57837;52.064;113.478;2023-07-13T05:36:40;10.63;;;5.20;;
70414;SDS011;57837;52.064;113.478;2023-07-13T05:39:43;6.82;;;4.85;;
70414;SDS011;57837;52.064;113.478;2023-07-13T05:42:47;10.03;;;4.90;;
70414;SDS011;57837;52.064;113.478;2023-07-13T05:45:52;10.40;;;4.05;;
70414;SDS011;57837;52.064;113.478;2023-07-13T05:48:57;8.18;;;4.00;;
70414;SDS011;57837;52.064;113.478;2023-07-13T05:52:00;10.23;;;4.47;;
70414;SDS011;57837;52.064;113.478;2023-07-13T05:55:04;7.20;;;4.30;;
70414;SDS011;57837;52.064;113.478;2023-07-13T05:58:08;6.97;;;4.33;;
70414;SDS011;57837;52.064;113.478;2023-07-13T06:01:13;7.07;;;4.57;;
70414;SDS011;57837;52.064;113.478;2023-07-13T06:04:17;7.88;;;4.53;;
70414;SDS011;57837;52.064;113.478;2023-07-13T06:07:21;9.77;;;4.60;;
70414;SDS011;57837;52.064;113.478;2023-07-13T06:10:24;10.27;;;4.45;;
70414;SDS011;57837;52.064;113.478;2023-07-13T06:13:28;9.10;;;4.60;;
70414;SDS011;57837;52.064;113.478;2023-07-13T06:16:32;8.25;;;4.30;;
70414;SDS011;57837;52.064;113.478;2023-07-13T06:19:36;5.93;;;3.90;;
70414;SDS011;57837;52.064;113.478;2023-07-13T06:22:40;6.75;;;4.30;;
70414;SDS011;57837;52.064;113.478;2023-07-13T06:25:44;6.65;;;3.85;;
70414;SDS011;57837;52.064;113.478;2023-07-13T06:28:48;7.23;;;3.37;;
70414;SDS011;57837;52.064;113.478;2023-07-13T06:31:52;8.38;;;3.20;;
70414;SDS011;57837;52.064;113.478;2023-07-13T06:34:55;5.03;;;2.97;;
70414;SDS011;57837;52.064;113.478;2023-07-13T06:37:58;6.57;;;2.88;;
70414;SDS011;57837;52.064;113.478;2023-07-13T06:41:02;8.73;;;2.80;;
70414;SDS011;57837;52.064;113.478;2023-07-13T06:44:06;8.13;;;2.57;;
70414;SDS011;57837;52.064;113.478;2023-07-13T06:47:09;6.53;;;2.25;;
70414;SDS011;57837;52.064;113.478;2023-07-13T06:50:13;7.95;;;2.42;;
70414;SDS011;57837;52.064;113.478;2023-07-13T06:53:17;10.75;;;2.33;;
70414;SDS011;57837;52.064;113.478;2023-07-13T06:56:22;4.45;;;2.17;;
70414;SDS011;57837;52.064;113.478;2023-07-13T06:59:26;5.60;;;2.13;;
70414;SDS011;57837;52.064;113.478;2023-07-13T07:02:29;6.88;;;1.85;;
70414;SDS011;57837;52.064;113.478;2023-07-13T07:05:33;5.75;;;1.65;;
70414;SDS011;57837;52.064;113.478;2023-07-13T07:08:37;5.40;;;1.80;;
70414;SDS011;57837;52.064;113.478;2023-07-13T07:11:40;4.20;;;1.75;;
70414;SDS011;57837;52.064;113.478;2023-07-13T07:15:03;5.03;;;1.80;;
70414;SDS011;57837;52.064;113.478;2023-07-13T07:18:06;5.20;;;1.60;;
70414;SDS011;57837;52.064;113.478;2023-07-13T07:21:10;3.00;;;1.20;;
70414;SDS011;57837;52.064;113.478;2023-07-13T07:24:13;12.80;;;1.55;;
70414;SDS011;57837;52.064;113.478;2023-07-13T07:27:18;5.78;;;1.80;;
70414;SDS011;57837;52.064;113.478;2023-07-13T07:30:24;3.63;;;1.40;;
70414;SDS011;57837;52.064;113.478;2023-07-13T07:33:32;5.22;;;1.58;;
70414;SDS011;57837;52.064;113.478;2023-07-13T07:36:37;3.15;;;1.20;;
70414;SDS011;57837;52.064;113.478;2023-07-13T07:39:44;1.75;;;0.82;;
70414;SDS011;57837;52.064;113.478;2023-07-13T07:43:08;4.72;;;0.75;;
70414;SDS011;57837;52.064;113.478;2023-07-13T07:46:13;3.83;;;0.80;;
70414;SDS011;57837;52.064;113.478;2023-07-13T07:49:17;4.13;;;1.00;;
70414;SDS011;57837;52.064;113.478;2023-07-13T07:52:20;3.42;;;0.82;;
70414;SDS011;57837;52.064;113.478;2023-07-13T07:55:24;5.50;;;1.25;;
70414;SDS011;57837;52.064;113.478;2023-07-13T07:58:33;2.53;;;1.30;;
70414;SDS011;57837;52.064;113.478;2023-07-13T08:01:40;3.07;;;0.80;;
70414;SDS011;57837;52.064;113.478;2023-07-13T08:05:03;4.07;;;0.82;;
70414;SDS011;57837;52.064;113.478;2023-07-13T08:08:10;3.38;;;0.82;;
70414;SDS011;57837;52.064;113.478;2023-07-13T08:11:13;6.00;;;1.10;;
70414;SDS011;57837;52.064;113.478;2023-07-13T08:14:20;6.45;;;0.70;;
70414;SDS011;57837;52.064;113.478;2023-07-13T08:17:24;17.33;;;1.17;;
70414;SDS011;57837;52.064;113.478;2023-07-13T08:20:27;8.10;;;1.02;;
70414;SDS011;57837;52.064;113.478;2023-07-13T08:23:32;5.53;;;0.70;;
70414;SDS011;57837;52.064;113.478;2023-07-13T08:26:35;4.60;;;0.88;;
70414;SDS011;57837;52.064;113.478;2023-07-13T08:29:39;4.20;;;0.60;;
70414;SDS011;57837;52.064;113.478;2023-07-13T08:32:43;2.77;;;0.60;;
70414;SDS011;57837;52.064;113.478;2023-07-13T08:35:47;9.93;;;0.70;;
70414;SDS011;57837;52.064;113.478;2023-07-13T08:38:51;4.55;;;0.90;;
70414;SDS011;57837;52.064;113.478;2023-07-13T08:41:57;6.57;;;1.25;;
70414;SDS011;57837;52.064;113.478;2023-07-13T08:48:25;5.80;;;1.10;;
70414;SDS011;57837;52.064;113.478;2023-07-13T08:51:41;9.23;;;1.60;;
70414;SDS011;57837;52.064;113.478;2023-07-13T08:54:47;8.38;;;1.08;;
70414;SDS011;57837;52.064;113.478;2023-07-13T08:57:56;13.63;;;1.40;;
70414;SDS011;57837;52.064;113.478;2023-07-13T09:01:13;7.60;;;0.90;;
70414;SDS011;57837;52.064;113.478;2023-07-13T09:04:28;4.70;;;0.70;;
70414;SDS011;57837;52.064;113.478;2023-07-13T09:17:46;9.73;;;1.35;;
70414;SDS011;57837;52.064;113.478;2023-07-13T09:27:33;5.22;;;0.90;;
70414;SDS011;57837;52.064;113.478;2023-07-13T09:33:59;6.10;;;0.73;;
70414;SDS011;57837;52.064;113.478;2023-07-13T09:37:03;3.40;;;0.90;;
70414;SDS011;57837;52.064;113.478;2023-07-13T09:40:10;3.00;;;0.70;;
70414;SDS011;57837;52.064;113.478;2023-07-13T09:43:34;13.07;;;2.10;;
70414;SDS011;57837;52.064;113.478;2023-07-13T09:46:38;7.25;;;0.80;;
70414;SDS011;57837;52.064;113.478;2023-07-13T09:49:47;2.70;;;0.50;;
70414;SDS011;57837;52.064;113.478;2023-07-13T09:52:51;8.57;;;0.60;;
70414;SDS011;57837;52.064;113.478;2023-07-13T09:55:56;4.00;;;0.98;;
70414;SDS011;57837;52.064;113.478;2023-07-13T09:58:59;5.80;;;1.10;;
70414;SDS011;57837;52.064;113.478;2023-07-13T10:02:15;8.43;;;0.90;;
70414;SDS011;57837;52.064;113.478;2023-07-13T10:05:27;5.63;;;1.10;;
70414;SDS011;57837;52.064;113.478;2023-07-13T10:08:31;5.33;;;1.30;;
70414;SDS011;57837;52.064;113.478;2023-07-13T10:11:39;9.50;;;2.05;;
70414;SDS011;57837;52.064;113.478;2023-07-13T10:14:44;5.45;;;1.98;;
70414;SDS011;57837;52.064;113.478;2023-07-13T10:17:48;9.73;;;1.70;;
70414;SDS011;57837;52.064;113.478;2023-07-13T10:21:00;6.43;;;3.15;;
70414;SDS011;57837;52.064;113.478;2023-07-13T10:24:19;7.23;;;4.10;;
70414;SDS011;57837;52.064;113.478;2023-07-13T10:27:33;6.65;;;2.80;;
70414;SDS011;57837;52.064;113.478;2023-07-13T10:30:39;7.05;;;2.80;;
70414;SDS011;57837;52.064;113.478;2023-07-13T10:33:46;15.98;;;2.42;;
70414;SDS011;57837;52.064;113.478;2023-07-13T10:36:49;10.45;;;2.08;;
70414;SDS011;57837;52.064;113.478;2023-07-13T10:39:54;7.97;;;1.80;;
70414;SDS011;57837;52.064;113.478;2023-07-13T10:42:59;10.38;;;2.80;;
70414;SDS011;57837;52.064;113.478;2023-07-13T10:46:08;9.02;;;3.50;;
70414;SDS011;57837;52.064;113.478;2023-07-13T10:49:15;7.63;;;3.20;;
70414;SDS011;57837;52.064;113.478;2023-07-13T10:52:41;9.07;;;3.45;;
70414;SDS011;57837;52.064;113.478;2023-07-13T10:59:29;9.77;;;2.25;;
70414;SDS011;57837;52.064;113.478;2023-07-13T11:02:29;5.07;;;2.15;;
70414;SDS011;57837;52.064;113.478;2023-07-13T11:05:33;5.38;;;2.17;;
70414;SDS011;57837;52.064;113.478;2023-07-13T11:08:58;6.05;;;2.35;;
70414;SDS011;57837;52.064;113.478;2023-07-13T11:12:06;6.13;;;2.07;;
70414;SDS011;57837;52.064;113.478;2023-07-13T11:15:14;5.47;;;1.88;;
70414;SDS011;57837;52.064;113.478;2023-07-13T11:18:30;9.02;;;2.10;;
70414;SDS011;57837;52.064;113.478;2023-07-13T11:21:34;6.82;;;2.70;;
70414;SDS011;57837;52.064;113.478;2023-07-13T11:31:15;5.28;;;2.75;;
70414;SDS011;57837;52.064;113.478;2023-07-13T11:34:30;5.10;;;2.50;;
70414;SDS011;57837;52.064;113.478;2023-07-13T11:37:38;6.70;;;3.00;;
70414;SDS011;57837;52.064;113.478;2023-07-13T11:40:43;11.00;;;2.95;;
70414;SDS011;57837;52.064;113.478;2023-07-13T11:44:41;7.33;;;2.10;;
70414;SDS011;57837;52.064;113.478;2023-07-13T11:47:25;7.82;;;1.67;;
70414;SDS011;57837;52.064;113.478;2023-07-13T11:50:31;7.78;;;2.13;;
70414;SDS011;57837;52.064;113.478;2023-07-13T11:53:45;4.15;;;1.58;;
70414;SDS011;57837;52.064;113.478;2023-07-13T11:56:49;6.55;;;2.10;;
70414;SDS011;57837;52.064;113.478;2023-07-13T11:59:53;8.60;;;3.70;;
70414;SDS011;57837;52.064;113.478;2023-07-13T12:02:59;23.80;;;9.98;;
70414;SDS011;57837;52.064;113.478;2023-07-13T12:06:25;17.92;;;7.75;;
70414;SDS011;57837;52.064;113.478;2023-07-13T12:09:34;11.63;;;3.33;;
70414;SDS011;57837;52.064;113.478;2023-07-13T12:12:40;16.23;;;4.97;;
70414;SDS011;57837;52.064;113.478;2023-07-13T12:19:35;14.07;;;6.38;;
70414;SDS011;57837;52.064;113.478;2023-07-13T12:22:39;13.95;;;3.95;;
70414;SDS011;57837;52.064;113.478;2023-07-13T12:25:43;22.25;;;7.28;;
70414;SDS011;57837;52.064;113.478;2023-07-13T12:28:54;19.17;;;4.80;;
70414;SDS011;57837;52.064;113.478;2023-07-13T12:31:58;31.23;;;6.23;;
70414;SDS011;57837;52.064;113.478;2023-07-13T12:35:13;12.25;;;4.15;;
70414;SDS011;57837;52.064;113.478;2023-07-13T12:38:18;20.77;;;4.53;;
70414;SDS011;57837;52.064;113.478;2023-07-13T12:41:24;11.00;;;3.90;;
70414;SDS011;57837;52.064;113.478;2023-07-13T12:44:31;12.80;;;4.47;;
70414;SDS011;57837;52.064;113.478;2023-07-13T12:47:41;26.00;;;11.27;;
70414;SDS011;57837;52.064;113.478;2023-07-13T12:50:47;17.45;;;5.53;;
70414;SDS011;57837;52.064;113.478;2023-07-13T12:53:57;14.20;;;4.35;;
70414;SDS011;57837;52.064;113.478;2023-07-13T12:57:15;13.00;;;3.90;;
70414;SDS011;57837;52.064;113.478;2023-07-13T13:00:25;10.30;;;3.47;;
70414;SDS011;57837;52.064;113.478;2023-07-13T13:03:33;11.83;;;4.07;;
70414;SDS011;57837;52.064;113.478;2023-07-13T13:06:40;13.25;;;3.60;;
70414;SDS011;57837;52.064;113.478;2023-07-13T13:09:46;10.73;;;3.20;;
70414;SDS011;57837;52.064;113.478;2023-07-13T13:12:50;14.30;;;3.30;;
70414;SDS011;57837;52.064;113.478;2023-07-13T13:15:55;31.33;;;4.53;;
70414;SDS011;57837;52.064;113.478;2023-07-13T13:19:16;16.27;;;3.30;;
70414;SDS011;57837;52.064;113.478;2023-07-13T13:22:21;13.52;;;2.55;;
70414;SDS011;57837;52.064;113.478;2023-07-13T13:25:25;6.85;;;2.40;;
70414;SDS011;57837;52.064;113.478;2023-07-13T13:28:29;6.13;;;2.58;;
70414;SDS011;57837;52.064;113.478;2023-07-13T13:31:35;7.97;;;3.03;;
70414;SDS011;57837;52.064;113.478;2023-07-13T13:34:38;7.90;;;2.77;;
70414;SDS011;57837;52.064;113.478;2023-07-13T13:37:43;15.25;;;5.10;;
70414;SDS011;57837;52.064;113.478;2023-07-13T13:40:47;22.15;;;3.70;;
70414;SDS011;57837;52.064;113.478;2023-07-13T13:43:51;16.70;;;3.38;;
70414;SDS011;57837;52.064;113.478;2023-07-13T13:46:55;10.90;;;3.13;;
70414;SDS011;57837;52.064;113.478;2023-07-13T13:50:01;7.57;;;3.30;;
70414;SDS011;57837;52.064;113.478;2023-07-13T13:53:08;12.02;;;2.38;;
70414;SDS011;57837;52.064;113.478;2023-07-13T13:56:14;12.85;;;2.60;;
70414;SDS011;57837;52.064;113.478;2023-07-13T13:59:20;9.38;;;2.25;;
70414;SDS011;57837;52.064;113.478;2023-07-13T14:02:25;13.30;;;3.27;;
70414;SDS011;57837;52.064;113.478;2023-07-13T14:05:31;8.43;;;2.70;;
70414;SDS011;57837;52.064;113.478;2023-07-13T14:08:36;7.15;;;2.60;;
70414;SDS011;57837;52.064;113.478;2023-07-13T14:11:40;8.82;;;2.15;;
70414;SDS011;57837;52.064;113.478;2023-07-13T14:14:47;8.27;;;2.35;;
70414;SDS011;57837;52.064;113.478;2023-07-13T14:17:50;6.27;;;1.93;;
70414;SDS011;57837;52.064;113.478;2023-07-13T14:20:55;10.60;;;2.10;;
70414;SDS011;57837;52.064;113.478;2023-07-13T14:23:59;6.80;;;1.67;;
70414;SDS011;57837;52.064;113.478;2023-07-13T14:27:02;5.13;;;1.70;;
70414;SDS011;57837;52.064;113.478;2023-07-13T14:30:14;2.95;;;1.25;;
70414;SDS011;57837;52.064;113.478;2023-07-13T14:33:20;6.83;;;1.80;;
70414;SDS011;57837;52.064;113.478;2023-07-13T14:36:28;6.93;;;3.10;;
70414;SDS011;57837;52.064;113.478;2023-07-13T14:39:34;4.93;;;3.28;;
70414;SDS011;57837;52.064;113.478;2023-07-13T14:42:38;3.65;;;1.55;;
70414;SDS011;57837;52.064;113.478;2023-07-13T14:45:44;7.07;;;1.75;;
70414;SDS011;57837;52.064;113.478;2023-07-13T14:48:53;4.80;;;1.87;;
70414;SDS011;57837;52.064;113.478;2023-07-13T14:52:17;6.10;;;3.17;;
70414;SDS011;57837;52.064;113.478;2023-07-13T14:55:24;4.90;;;2.97;;
70414;SDS011;57837;52.064;113.478;2023-07-13T14:58:29;2.58;;;1.25;;
70414;SDS011;57837;52.064;113.478;2023-07-13T15:01:34;6.20;;;1.17;;
70414;SDS011;57837;52.064;113.478;2023-07-13T15:04:40;3.83;;;1.00;;
70414;SDS011;57837;52.064;113.478;2023-07-13T15:07:43;1.57;;;0.63;;
70414;SDS011;57837;52.064;113.478;2023-07-13T15:10:48;3.70;;;1.17;;
70414;SDS011;57837;52.064;113.478;2023-07-13T15:13:51;6.70;;;2.00;;
70414;SDS011;57837;52.064;113.478;2023-07-13T15:16:56;7.18;;;2.25;;
70414;SDS011;57837;52.064;113.478;2023-07-13T15:20:00;3.77;;;2.30;;
70414;SDS011;57837;52.064;113.478;2023-07-13T15:23:04;4.77;;;2.50;;
70414;SDS011;57837;52.064;113.478;2023-07-13T15:26:12;8.32;;;3.03;;
70414;SDS011;57837;52.064;113.478;2023-07-13T15:29:17;6.18;;;2.33;;
70414;SDS011;57837;52.064;113.478;2023-07-13T15:32:21;8.23;;;3.10;;
70414;SDS011;57837;52.064;113.478;2023-07-13T15:35:26;12.43;;;3.60;;
70414;SDS011;57837;52.064;113.478;2023-07-13T15:38:31;16.53;;;4.60;;
70414;SDS011;57837;52.064;113.478;2023-07-13T15:41:40;16.55;;;6.80;;
70414;SDS011;57837;52.064;113.478;2023-07-13T15:44:48;12.73;;;5.40;;
70414;SDS011;57837;52.064;113.478;2023-07-13T15:47:53;12.07;;;4.18;;
70414;SDS011;57837;52.064;113.478;2023-07-13T15:51:00;8.63;;;3.23;;
70414;SDS011;57837;52.064;113.478;2023-07-13T15:54:05;11.13;;;3.30;;
70414;SDS011;57837;52.064;113.478;2023-07-13T15:57:12;8.77;;;3.00;;
70414;SDS011;57837;52.064;113.478;2023-07-13T16:00:21;6.13;;;2.90;;
70414;SDS011;57837;52.064;113.478;2023-07-13T16:03:29;7.45;;;2.65;;
70414;SDS011;57837;52.064;113.478;2023-07-13T16:06:35;9.30;;;2.60;;
70414;SDS011;57837;52.064;113.478;2023-07-13T16:09:44;7.20;;;2.63;;
70414;SDS011;57837;52.064;113.478;2023-07-13T16:12:49;8.45;;;2.78;;
70414;SDS011;57837;52.064;113.478;2023-07-13T16:15:53;8.57;;;2.85;;
70414;SDS011;57837;52.064;113.478;2023-07-13T16:19:00;10.38;;;3.80;;
70414;SDS011;57837;52.064;113.478;2023-07-13T16:22:08;8.70;;;3.23;;
70414;SDS011;57837;52.064;113.478;2023-07-13T16:25:20;8.20;;;3.30;;
70414;SDS011;57837;52.064;113.478;2023-07-13T16:28:28;8.93;;;3.42;;
70414;SDS011;57837;52.064;113.478;2023-07-13T16:31:34;11.30;;;3.35;;
70414;SDS011;57837;52.064;113.478;2023-07-13T16:34:37;10.40;;;3.88;;
70414;SDS011;57837;52.064;113.478;2023-07-13T16:37:44;10.47;;;3.23;;
70414;SDS011;57837;52.064;113.478;2023-07-13T16:41:04;12.60;;;3.40;;
70414;SDS011;57837;52.064;113.478;2023-07-13T16:44:13;6.72;;;3.08;;
70414;SDS011;57837;52.064;113.478;2023-07-13T16:47:21;12.90;;;3.38;;
70414;SDS011;57837;52.064;113.478;2023-07-13T16:50:32;6.57;;;3.13;;
70414;SDS011;57837;52.064;113.478;2023-07-13T16:53:36;7.53;;;2.90;;
70414;SDS011;57837;52.064;113.478;2023-07-13T16:56:42;6.77;;;3.13;;
70414;SDS011;57837;52.064;113.478;2023-07-13T16:59:46;12.98;;;3.00;;
70414;SDS011;57837;52.064;113.478;2023-07-13T17:02:50;5.20;;;2.40;;
70414;SDS011;57837;52.064;113.478;2023-07-13T17:05:54;7.07;;;2.25;;
70414;SDS011;57837;52.064;113.478;2023-07-13T17:09:02;5.43;;;1.90;;
70414;SDS011;57837;52.064;113.478;2023-07-13T17:12:09;10.43;;;4.80;;
70414;SDS011;57837;52.064;113.478;2023-07-13T17:15:13;19.13;;;10.30;;
70414;SDS011;57837;52.064;113.478;2023-07-13T17:18:17;7.10;;;3.70;;
70414;SDS011;57837;52.064;113.478;2023-07-13T17:21:21;4.63;;;2.20;;
70414;SDS011;57837;52.064;113.478;2023-07-13T17:24:26;5.30;;;2.07;;
70414;SDS011;57837;52.064;113.478;2023-07-13T17:27:31;9.43;;;1.60;;
70414;SDS011;57837;52.064;113.478;2023-07-13T17:30:35;7.38;;;1.50;;
70414;SDS011;57837;52.064;113.478;2023-07-13T17:33:41;4.65;;;1.67;;
70414;SDS011;57837;52.064;113.478;2023-07-13T17:36:47;3.97;;;1.73;;
70414;SDS011;57837;52.064;113.478;2023-07-13T17:39:51;6.20;;;1.97;;
70414;SDS011;57837;52.064;113.478;2023-07-13T17:42:54;6.00;;;1.77;;
70414;SDS011;57837;52.064;113.478;2023-07-13T17:45:58;5.45;;;1.58;;
70414;SDS011;57837;52.064;113.478;2023-07-13T17:49:03;2.63;;;1.45;;
70414;SDS011;57837;52.064;113.478;2023-07-13T17:52:09;5.30;;;1.65;;
70414;SDS011;57837;52.064;113.478;2023-07-13T17:55:13;6.57;;;2.10;;
70414;SDS011;57837;52.064;113.478;2023-07-13T17:58:17;7.13;;;2.90;;
70414;SDS011;57837;52.064;113.478;2023-07-13T18:01:22;6.50;;;3.08;;
70414;SDS011;57837;52.064;113.478;2023-07-13T18:04:28;9.65;;;4.40;;
70414;SDS011;57837;52.064;113.478;2023-07-13T18:07:32;17.90;;;4.95;;
70414;SDS011;57837;52.064;113.478;2023-07-13T18:10:35;8.90;;;4.60;;
70414;SDS011;57837;52.064;113.478;2023-07-13T18:13:39;11.53;;;4.40;;
70414;SDS011;57837;52.064;113.478;2023-07-13T18:16:46;16.60;;;5.82;;
70414;SDS011;57837;52.064;113.478;2023-07-13T18:19:56;11.13;;;4.40;;
70414;SDS011;57837;52.064;113.478;2023-07-13T18:23:01;13.25;;;5.22;;
70414;SDS011;57837;52.064;113.478;2023-07-13T18:26:09;10.53;;;5.07;;
70414;SDS011;57837;52.064;113.478;2023-07-13T18:29:15;14.47;;;4.97;;
70414;SDS011;57837;52.064;113.478;2023-07-13T18:32:19;10.70;;;4.30;;
70414;SDS011;57837;52.064;113.478;2023-07-13T18:35:28;11.95;;;4.45;;
70414;SDS011;57837;52.064;113.478;2023-07-13T18:38:33;10.07;;;4.25;;
70414;SDS011;57837;52.064;113.478;2023-07-13T18:41:38;10.23;;;4.13;;
70414;SDS011;57837;52.064;113.478;2023-07-13T18:44:42;12.07;;;4.47;;